createdAt,value
2023-02-02T00:01:39.900Z,3.99
2023-02-02T00:04:11.106Z,4.00
2023-02-02T00:06:39.510Z,4.00
2023-02-02T00:09:08.077Z,3.98
2023-02-02T00:11:36.778Z,3.99
2023-02-02T00:14:05.346Z,3.97
2023-02-02T00:16:42.258Z,3.97
2023-02-02T00:19:14.382Z,3.99
2023-02-02T00:21:43.496Z,4.00
2023-02-02T00:24:13.513Z,4.03
2023-02-02T00:26:43.375Z,4.01
2023-02-02T00:29:17.551Z,4.01
2023-02-02T00:31:46.065Z,4.01
2023-02-02T00:34:17.366Z,4.03
2023-02-02T00:36:46.594Z,4.02
2023-02-02T00:39:19.004Z,4.02
2023-02-02T00:41:47.733Z,4.04
2023-02-02T00:44:33.937Z,4.05
2023-02-02T00:47:02.568Z,4.03
2023-02-02T00:49:32.909Z,4.03
2023-02-02T00:52:02.222Z,4.01
2023-02-02T00:54:31.225Z,4.07
2023-02-02T00:56:59.698Z,4.06
2023-02-02T00:59:28.176Z,4.08
2023-02-02T01:01:59.707Z,4.11
2023-02-02T01:04:28.158Z,4.09
2023-02-02T01:06:58.339Z,4.07
2023-02-02T01:09:26.748Z,4.10
2023-02-02T01:11:55.214Z,4.09
2023-02-02T01:14:23.617Z,4.13
2023-02-02T01:16:52.077Z,4.10
2023-02-02T01:19:20.587Z,4.13
2023-02-02T01:21:49.114Z,4.12
2023-02-02T01:24:19.022Z,4.08
2023-02-02T01:26:47.506Z,4.15
2023-02-02T01:29:16.061Z,4.17
2023-02-02T01:31:44.853Z,4.21
2023-02-02T01:34:13.380Z,4.16
2023-02-02T01:36:41.941Z,4.22
2023-02-02T01:39:10.789Z,4.23
2023-02-02T01:41:42.520Z,4.23
2023-02-02T01:44:44.057Z,4.22
2023-02-02T01:47:12.985Z,4.25
2023-02-02T01:49:42.699Z,4.18
2023-02-02T01:52:13.235Z,4.23
2023-02-02T01:54:46.551Z,4.24
2023-02-02T01:57:21.823Z,4.26
2023-02-02T01:59:53.631Z,4.26
2023-02-02T02:02:22.614Z,4.28
2023-02-02T02:04:52.446Z,4.26
2023-02-02T02:07:21.036Z,4.30
2023-02-02T02:09:49.966Z,4.32
2023-02-02T02:12:20.278Z,4.35
2023-02-02T02:15:08.335Z,4.37
2023-02-02T02:17:53.663Z,4.40
2023-02-02T02:21:01.457Z,4.41
2023-02-02T02:24:12.424Z,4.43
2023-02-02T02:27:04.525Z,4.41
2023-02-02T02:30:00.359Z,4.43
2023-02-02T02:32:39.776Z,4.41
2023-02-02T02:35:16.448Z,4.42
2023-02-02T02:37:51.735Z,4.43
2023-02-02T02:40:28.660Z,4.44
2023-02-02T02:43:01.574Z,4.49
2023-02-02T02:45:31.017Z,4.51
2023-02-02T02:48:01.535Z,4.40
2023-02-02T02:50:32.427Z,4.45
2023-02-02T02:53:08.695Z,4.49
2023-02-02T02:55:48.025Z,4.52
2023-02-02T02:58:23.477Z,4.55
2023-02-02T03:01:06.674Z,4.51
2023-02-02T03:06:43.534Z,4.57
2023-02-02T03:09:16.397Z,4.57
2023-02-02T03:11:45.561Z,4.62
2023-02-02T03:14:15.314Z,4.60
2023-02-02T03:16:43.887Z,4.61
2023-02-02T03:19:12.560Z,4.62
2023-02-02T03:21:42.439Z,4.57
2023-02-02T03:24:11.070Z,4.63
2023-02-02T03:26:40.161Z,4.67
2023-02-02T03:29:08.939Z,4.69
2023-02-02T03:31:37.657Z,4.69
2023-02-02T03:34:11.845Z,4.69
2023-02-02T03:36:41.705Z,4.66
2023-02-02T03:39:10.536Z,4.66
2023-02-02T03:41:39.539Z,4.77
2023-02-02T03:44:08.236Z,4.75
2023-02-02T03:46:37.066Z,4.77
2023-02-02T03:49:07.374Z,4.76
2023-02-02T03:51:37.112Z,4.76
2023-02-02T03:54:07.555Z,4.76
2023-02-02T03:56:36.396Z,4.77
2023-02-02T03:59:05.134Z,4.77
2023-02-02T04:01:33.782Z,4.72
2023-02-02T04:04:02.411Z,4.74
2023-02-02T04:06:31.229Z,4.77
2023-02-02T04:08:59.643Z,4.75
2023-02-02T04:11:30.871Z,4.75
2023-02-02T04:13:59.587Z,4.80
2023-02-02T04:16:28.166Z,4.83
2023-02-02T04:18:56.559Z,4.85
2023-02-02T04:21:25.218Z,4.88
2023-02-02T04:23:54.775Z,4.91
2023-02-02T04:26:25.751Z,4.92
2023-02-02T04:28:56.823Z,4.90
2023-02-02T04:31:25.981Z,4.93
2023-02-02T04:33:54.463Z,4.94
2023-02-02T04:36:23.076Z,4.91
2023-02-02T04:38:56.116Z,4.91
2023-02-02T04:41:25.632Z,4.93
2023-02-02T04:43:55.560Z,4.98
2023-02-02T04:46:24.351Z,4.98
2023-02-02T04:48:53.279Z,5.02
2023-02-02T04:51:21.877Z,5.04
2023-02-02T04:53:50.325Z,5.01
2023-02-02T04:56:20.605Z,5.04
2023-02-02T04:58:49.326Z,5.06
2023-02-02T05:01:21.486Z,5.08
2023-02-02T05:03:51.108Z,5.11
2023-02-02T05:06:20.227Z,5.12
2023-02-02T05:08:49.282Z,5.08
2023-02-02T05:11:19.502Z,4.98
2023-02-02T05:13:49.125Z,4.99
2023-02-02T05:16:20.322Z,5.06
2023-02-02T05:18:51.966Z,5.11
2023-02-02T05:21:20.960Z,5.10
2023-02-02T05:23:49.961Z,5.05
2023-02-02T05:26:20.923Z,5.13
2023-02-02T05:28:49.962Z,5.17
2023-02-02T05:31:20.192Z,5.19
2023-02-02T05:33:48.670Z,5.20
2023-02-02T05:36:17.666Z,5.22
2023-02-02T05:38:46.164Z,5.24
2023-02-02T05:41:14.680Z,5.21
2023-02-02T05:43:43.356Z,5.25
2023-02-02T05:46:12.806Z,5.25
2023-02-02T05:48:42.749Z,5.25
2023-02-02T05:51:17.479Z,5.28
2023-02-02T05:53:46.430Z,5.18
2023-02-02T05:56:16.071Z,5.23
2023-02-02T05:58:44.923Z,5.24
2023-02-02T06:01:13.464Z,5.21
2023-02-02T06:03:45.345Z,5.17
2023-02-02T06:06:14.245Z,5.16
2023-02-02T06:08:42.698Z,5.20
2023-02-02T06:11:12.346Z,5.23
2023-02-02T06:13:41.015Z,5.13
2023-02-02T06:16:10.196Z,5.18
2023-02-02T06:18:39.280Z,5.10
2023-02-02T06:21:09.414Z,5.10
2023-02-02T06:23:37.955Z,5.05
2023-02-02T06:26:08.705Z,5.11
2023-02-02T06:28:37.116Z,5.12
2023-02-02T06:31:06.681Z,5.06
2023-02-02T06:33:35.280Z,5.01
2023-02-02T06:36:05.500Z,4.99
2023-02-02T06:38:35.533Z,4.85
2023-02-02T06:41:04.688Z,4.89
2023-02-02T06:43:33.423Z,4.84
2023-02-02T06:46:02.348Z,4.83
2023-02-02T06:48:30.749Z,4.78
2023-02-02T06:51:01.085Z,4.82
2023-02-02T06:53:30.067Z,4.76
2023-02-02T06:56:02.931Z,4.80
2023-02-02T06:58:32.507Z,4.82
2023-02-02T07:01:05.932Z,4.77
2023-02-02T07:03:35.569Z,4.77
2023-02-02T07:06:13.438Z,4.74
2023-02-02T07:08:42.443Z,4.81
2023-02-02T07:11:16.579Z,4.76
2023-02-02T07:13:46.156Z,4.81
2023-02-02T07:16:14.995Z,4.86
2023-02-02T07:18:44.617Z,4.88
2023-02-02T07:21:19.145Z,4.90
2023-02-02T07:23:48.843Z,4.92
2023-02-02T07:26:21.027Z,4.91
2023-02-02T07:28:49.933Z,4.95
2023-02-02T07:31:20.819Z,4.97
2023-02-02T07:33:50.858Z,4.97
2023-02-02T07:36:21.615Z,4.99
2023-02-02T07:38:54.032Z,5.02
2023-02-02T07:41:25.329Z,5.05
2023-02-02T07:43:54.821Z,4.98
2023-02-02T07:46:23.317Z,5.02
2023-02-02T07:48:57.079Z,5.03
2023-02-02T07:51:27.229Z,4.97
2023-02-02T07:53:58.899Z,4.96
2023-02-02T07:56:29.837Z,4.99
2023-02-02T07:58:59.180Z,4.98
2023-02-02T08:01:29.288Z,5.01
2023-02-02T08:04:00.594Z,5.04
2023-02-02T08:06:32.423Z,5.06
2023-02-02T08:09:02.590Z,5.15
2023-02-02T08:11:33.055Z,5.21
2023-02-02T08:14:04.064Z,5.23
2023-02-02T08:16:34.781Z,5.24
2023-02-02T08:19:03.722Z,5.22
2023-02-02T08:21:34.937Z,5.28
2023-02-02T08:24:05.465Z,5.30
2023-02-02T08:26:35.881Z,5.30
2023-02-02T08:29:06.518Z,5.34
2023-02-02T08:31:37.226Z,5.36
2023-02-02T08:34:06.146Z,5.37
2023-02-02T08:36:35.634Z,5.39
2023-02-02T08:39:05.369Z,5.43
2023-02-02T08:41:35.663Z,5.40
2023-02-02T08:44:10.364Z,5.41
2023-02-02T08:46:39.754Z,5.41
2023-02-02T08:49:08.808Z,5.36
2023-02-02T08:51:37.427Z,5.34
2023-02-02T08:54:05.980Z,5.28
2023-02-02T08:56:35.957Z,5.21
2023-02-02T08:59:05.591Z,5.23
2023-02-02T09:01:35.908Z,5.35
2023-02-02T09:04:06.780Z,5.40
2023-02-02T09:06:36.881Z,5.44
2023-02-02T09:09:07.224Z,5.52
2023-02-02T09:11:37.924Z,5.54
2023-02-02T09:14:07.302Z,5.51
2023-02-02T09:16:36.879Z,5.55
2023-02-02T09:19:06.520Z,5.53
2023-02-02T09:21:37.424Z,5.36
2023-02-02T09:24:10.871Z,5.08
2023-02-02T09:26:41.955Z,4.91
2023-02-02T09:29:15.859Z,4.69
2023-02-02T09:31:44.772Z,4.53
2023-02-02T09:34:15.701Z,4.57
2023-02-02T09:36:45.207Z,4.50
2023-02-02T09:39:15.239Z,4.47
2023-02-02T09:42:01.326Z,4.42
2023-02-02T09:44:46.091Z,4.43
2023-02-02T09:47:19.751Z,4.42
2023-02-02T09:49:57.793Z,4.47
2023-02-02T09:52:31.027Z,4.31
2023-02-02T09:55:04.722Z,4.34
2023-02-02T09:57:41.196Z,4.34
2023-02-02T10:00:25.938Z,4.35
2023-02-02T10:03:01.800Z,4.42
2023-02-02T10:05:45.411Z,4.48
2023-02-02T10:08:34.273Z,4.48
2023-02-02T10:11:11.713Z,4.62
2023-02-02T10:13:44.621Z,4.59
2023-02-02T10:16:18.796Z,4.60
2023-02-02T10:18:53.664Z,4.52
2023-02-02T10:21:29.087Z,4.58
2023-02-02T10:23:59.632Z,4.61
2023-02-02T10:26:36.305Z,4.70
2023-02-02T10:29:14.182Z,4.79
2023-02-02T10:31:48.198Z,4.75
2023-02-02T10:34:23.392Z,4.67
2023-02-02T10:37:14.698Z,4.74
2023-02-02T10:39:58.199Z,4.84
2023-02-02T10:42:35.801Z,4.94
2023-02-02T10:45:12.601Z,5.01
2023-02-02T10:47:41.519Z,5.20
2023-02-02T10:50:18.257Z,5.25
2023-02-02T10:52:51.176Z,5.19
2023-02-02T10:55:27.272Z,5.14
2023-02-02T10:58:08.874Z,5.24
2023-02-02T11:00:46.118Z,5.22
2023-02-02T11:03:16.340Z,5.38
2023-02-02T11:06:02.179Z,5.39
2023-02-02T11:08:35.369Z,5.46
2023-02-02T11:11:13.576Z,5.43
2023-02-02T11:13:48.369Z,5.44
2023-02-02T11:16:42.267Z,5.54
2023-02-02T11:19:30.686Z,5.53
2023-02-02T11:22:01.118Z,5.63
2023-02-02T11:24:31.387Z,5.70
2023-02-02T11:27:03.846Z,5.83
2023-02-02T11:29:37.457Z,5.91
2023-02-02T11:32:28.782Z,5.84
2023-02-02T11:35:19.079Z,5.84
2023-02-02T11:38:09.024Z,5.82
2023-02-02T11:40:39.292Z,5.90
2023-02-02T11:43:18.955Z,5.92
2023-02-02T11:45:50.678Z,6.07
2023-02-02T11:48:22.267Z,6.11
2023-02-02T11:50:53.990Z,6.18
2023-02-02T11:53:26.154Z,6.16
2023-02-02T11:55:55.768Z,6.20
2023-02-02T11:58:28.686Z,6.26
2023-02-02T12:01:00.668Z,6.33
2023-02-02T12:03:38.265Z,6.45
2023-02-02T12:06:20.898Z,6.29
2023-02-02T12:08:49.907Z,6.21
2023-02-02T12:11:30.013Z,6.17
2023-02-02T12:14:12.309Z,6.11
2023-02-02T12:17:02.671Z,6.18
2023-02-02T12:19:52.750Z,6.13
2023-02-02T12:22:33.704Z,6.08
2023-02-02T12:25:11.228Z,6.08
2023-02-02T12:27:48.763Z,5.95
2023-02-02T12:30:30.691Z,5.83
2023-02-02T12:33:22.318Z,5.83
2023-02-02T12:36:14.166Z,5.71
2023-02-02T12:39:10.283Z,5.72
2023-02-02T12:41:49.534Z,5.68
2023-02-02T12:44:23.386Z,5.68
2023-02-02T12:47:01.435Z,5.67
2023-02-02T12:49:56.554Z,5.60
2023-02-02T12:52:52.511Z,5.54
2023-02-02T12:55:28.084Z,5.46
2023-02-02T12:58:07.476Z,5.41
2023-02-02T13:00:51.054Z,5.26
2023-02-02T13:03:50.023Z,5.16
2023-02-02T13:06:47.357Z,5.17
2023-02-02T13:09:24.173Z,5.11
2023-02-02T13:11:56.295Z,5.11
2023-02-02T13:14:28.194Z,5.07
2023-02-02T13:17:03.177Z,5.07
2023-02-02T13:19:41.136Z,5.14
2023-02-02T13:22:20.499Z,5.15
2023-02-02T13:24:54.852Z,5.16
2023-02-02T13:27:25.180Z,5.15
2023-02-02T13:29:57.458Z,5.13
2023-02-02T13:32:31.510Z,5.12
2023-02-02T13:35:04.563Z,5.17
2023-02-02T13:37:38.466Z,5.19
2023-02-02T13:40:29.912Z,5.22
2023-02-02T13:43:07.885Z,5.16
2023-02-02T13:45:49.544Z,5.17
2023-02-02T13:48:27.624Z,4.92
2023-02-02T13:51:18.563Z,4.78
2023-02-02T13:54:13.222Z,4.83
2023-02-02T13:56:53.134Z,4.47
2023-02-02T13:59:48.591Z,4.20
2023-02-02T14:02:25.432Z,4.02
2023-02-02T14:04:56.868Z,3.76
2023-02-02T14:07:32.986Z,3.62
2023-02-02T14:10:01.830Z,3.52
2023-02-02T14:12:34.377Z,3.59
2023-02-02T14:15:02.039Z,3.68
2023-02-02T14:17:56.314Z,3.68
2023-02-02T14:20:45.138Z,3.80
2023-02-02T14:23:51.935Z,3.79
2023-02-02T14:26:40.819Z,3.84
2023-02-02T14:29:58.797Z,3.84
2023-02-02T14:32:34.905Z,3.83
2023-02-02T14:36:11.092Z,3.89
2023-02-02T14:39:00.133Z,4.03
2023-02-02T14:42:22.505Z,4.09
2023-02-02T14:45:25.483Z,4.11
2023-02-02T14:47:56.627Z,4.15
2023-02-02T14:50:37.528Z,4.04
2023-02-02T14:53:10.155Z,4.06
2023-02-02T14:55:51.585Z,4.10
2023-02-02T14:58:26.125Z,4.09
2023-02-02T15:01:07.099Z,4.06
2023-02-02T15:03:37.802Z,4.07
2023-02-02T15:06:14.609Z,4.07
2023-02-02T15:08:43.411Z,3.99
2023-02-02T15:11:30.970Z,3.93
2023-02-02T15:14:16.598Z,3.98
2023-02-02T15:16:48.121Z,3.96
2023-02-02T15:19:26.112Z,3.95
2023-02-02T15:21:59.920Z,3.95
2023-02-02T15:24:31.172Z,3.92
2023-02-02T15:27:03.299Z,3.90
2023-02-02T15:29:38.735Z,3.88
2023-02-02T15:32:16.378Z,3.86
2023-02-02T15:34:48.575Z,3.75
2023-02-02T15:37:23.177Z,3.77
2023-02-02T15:39:57.259Z,3.75
2023-02-02T15:42:48.948Z,3.72
2023-02-02T15:45:38.167Z,3.72
2023-02-02T15:48:21.685Z,3.76
2023-02-02T15:50:54.857Z,3.78
2023-02-02T15:53:26.857Z,3.71
2023-02-02T15:55:57.654Z,3.78
2023-02-02T15:58:29.927Z,3.80
2023-02-02T16:01:04.932Z,3.78
2023-02-02T16:03:46.968Z,3.79
2023-02-02T16:06:15.548Z,3.74
2023-02-02T16:08:44.472Z,3.76
2023-02-02T16:11:16.378Z,3.67
2023-02-02T16:14:01.555Z,3.66
2023-02-02T16:16:32.627Z,3.65
2023-02-02T16:19:14.671Z,3.59
2023-02-02T16:21:51.588Z,3.54
2023-02-02T16:24:25.651Z,3.46
2023-02-02T16:26:58.850Z,3.39
2023-02-02T16:29:28.436Z,3.34
2023-02-02T16:31:58.565Z,3.28
2023-02-02T16:34:47.704Z,3.16
2023-02-02T16:37:18.919Z,3.15
2023-02-02T16:39:47.414Z,3.08
2023-02-02T16:42:26.023Z,3.06
2023-02-02T16:44:55.759Z,3.02
2023-02-02T16:47:40.105Z,2.93
2023-02-02T16:50:29.184Z,2.94
2023-02-02T16:53:03.074Z,2.82
2023-02-02T16:55:49.394Z,2.82
2023-02-02T16:58:22.457Z,2.96
2023-02-02T17:01:13.963Z,2.84
2023-02-02T17:03:51.452Z,2.92
2023-02-02T17:06:38.371Z,2.92
2023-02-02T17:09:28.146Z,2.92
2023-02-02T17:11:59.690Z,2.93
2023-02-02T17:14:34.723Z,2.94
2023-02-02T17:17:06.494Z,2.92
2023-02-02T17:19:35.205Z,2.85
2023-02-02T17:22:08.851Z,2.84
2023-02-02T17:24:37.931Z,2.81
2023-02-02T17:27:06.372Z,2.69
2023-02-02T17:29:35.504Z,2.70
2023-02-02T17:32:03.881Z,2.71
2023-02-02T17:34:32.351Z,2.74
2023-02-02T17:37:01.542Z,2.71
2023-02-02T17:39:31.549Z,2.58
2023-02-02T17:42:00.153Z,2.61
2023-02-02T17:44:28.715Z,2.58
2023-02-02T17:46:57.126Z,2.50
2023-02-02T17:49:26.063Z,2.43
2023-02-02T17:51:54.506Z,2.40
2023-02-02T17:54:23.338Z,2.49
2023-02-02T17:56:53.315Z,2.48
2023-02-02T17:59:21.831Z,2.47
2023-02-02T18:01:50.514Z,2.46
2023-02-02T18:04:19.333Z,2.47
2023-02-02T18:06:47.775Z,2.51
2023-02-02T18:09:17.203Z,2.49
2023-02-02T18:11:45.799Z,2.48
2023-02-02T18:14:15.802Z,2.46
2023-02-02T18:16:44.161Z,2.42
2023-02-02T18:19:13.115Z,2.42
2023-02-02T18:21:41.794Z,2.41
2023-02-02T18:24:15.281Z,2.40
2023-02-02T18:26:43.720Z,2.44
2023-02-02T18:29:14.642Z,2.42
2023-02-02T18:31:43.741Z,2.43
2023-02-02T18:34:12.872Z,2.57
2023-02-02T18:36:41.879Z,2.56
2023-02-02T18:39:10.811Z,2.68
2023-02-02T18:41:39.268Z,2.72
2023-02-02T18:44:08.140Z,2.75
2023-02-02T18:46:38.731Z,2.74
2023-02-02T18:49:07.214Z,2.75
2023-02-02T18:51:35.910Z,2.76
2023-02-02T18:54:04.432Z,2.70
2023-02-02T18:56:33.388Z,2.80
2023-02-02T18:59:01.950Z,2.80
2023-02-02T19:01:31.087Z,2.80
2023-02-02T19:04:01.730Z,2.81
2023-02-02T19:06:47.393Z,2.80
2023-02-02T19:09:17.524Z,2.80
2023-02-02T19:11:48.219Z,2.79
2023-02-02T19:14:18.567Z,2.80
2023-02-02T19:16:48.390Z,2.78
2023-02-02T19:19:27.609Z,2.78
2023-02-02T19:21:58.645Z,2.76
2023-02-02T19:24:28.449Z,2.77
2023-02-02T19:26:59.625Z,2.80
2023-02-02T19:29:37.435Z,2.64
2023-02-02T19:32:15.069Z,2.76
2023-02-02T19:34:46.184Z,2.75
2023-02-02T19:37:24.182Z,2.74
2023-02-02T19:39:55.708Z,2.75
2023-02-02T19:42:25.387Z,2.73
2023-02-02T19:44:55.251Z,2.76
2023-02-02T19:47:29.495Z,2.74
2023-02-02T19:50:00.269Z,2.75
2023-02-02T19:52:29.054Z,2.73
2023-02-02T19:54:57.488Z,2.69
2023-02-02T19:57:36.584Z,2.70
2023-02-02T20:00:20.359Z,2.69
2023-02-02T20:03:01.416Z,2.66
2023-02-02T20:05:35.532Z,2.63
2023-02-02T20:08:10.682Z,2.63
2023-02-02T20:10:42.663Z,2.65
2023-02-02T20:13:20.160Z,2.61
2023-02-02T20:15:49.602Z,2.61
2023-02-02T20:18:21.484Z,2.56
2023-02-02T20:20:54.751Z,2.60
2023-02-02T20:23:41.233Z,2.63
2023-02-02T20:26:21.768Z,2.59
2023-02-02T20:28:50.998Z,2.58
2023-02-02T20:31:22.089Z,2.54
2023-02-02T20:33:53.681Z,2.56
2023-02-02T20:36:39.427Z,2.55
2023-02-02T20:39:30.753Z,2.43
2023-02-02T20:41:59.355Z,2.44
2023-02-02T20:44:29.040Z,2.36
2023-02-02T20:46:58.123Z,2.26
2023-02-02T20:49:27.121Z,2.37
2023-02-02T20:51:58.527Z,2.36
2023-02-02T20:54:27.675Z,2.33
2023-02-02T20:56:56.707Z,2.29
2023-02-02T20:59:25.209Z,2.25
2023-02-02T21:01:53.667Z,2.28
2023-02-02T21:04:23.399Z,2.29
2023-02-02T21:06:52.083Z,2.34
2023-02-02T21:09:22.312Z,2.32
2023-02-02T21:11:51.669Z,2.22
2023-02-02T21:14:20.612Z,2.18
2023-02-02T21:16:49.246Z,2.21
2023-02-02T21:19:17.603Z,2.20
2023-02-02T21:21:46.385Z,2.18
2023-02-02T21:24:14.953Z,2.18
2023-02-02T21:26:45.003Z,2.13
2023-02-02T21:29:13.821Z,2.10
2023-02-02T21:31:42.393Z,2.06
2023-02-02T21:34:13.344Z,2.08
2023-02-02T21:36:45.548Z,2.05
2023-02-02T21:39:20.022Z,1.99
2023-02-02T21:41:50.797Z,1.94
2023-02-02T21:44:21.572Z,1.83
2023-02-02T21:46:52.800Z,1.87
2023-02-02T21:49:37.262Z,1.82
2023-02-02T21:52:15.567Z,1.82
2023-02-02T21:54:44.847Z,1.82
2023-02-02T21:57:20.148Z,1.83
2023-02-02T21:59:54.634Z,1.87
2023-02-02T22:02:41.964Z,1.92
2023-02-02T22:05:18.677Z,1.87
2023-02-02T22:07:49.306Z,1.86
2023-02-02T22:10:37.685Z,1.85
2023-02-02T22:13:17.542Z,1.88
2023-02-02T22:15:47.602Z,1.86
2023-02-02T22:18:19.059Z,1.84
2023-02-02T22:20:49.857Z,1.82
2023-02-02T22:23:20.005Z,1.85
2023-02-02T22:25:49.684Z,1.85
2023-02-02T22:28:23.962Z,1.79
2023-02-02T22:30:53.240Z,1.77
2023-02-02T22:33:22.122Z,1.77
2023-02-02T22:35:50.950Z,1.71
2023-02-02T22:38:20.874Z,1.69
2023-02-02T22:40:50.520Z,1.77
2023-02-02T22:43:20.305Z,1.77
2023-02-02T22:45:50.376Z,1.76
2023-02-02T22:48:19.042Z,1.68
2023-02-02T22:50:47.434Z,1.58
2023-02-02T22:53:15.772Z,1.62
2023-02-02T22:55:44.722Z,1.57
2023-02-02T22:58:13.084Z,1.57
2023-02-02T23:00:41.511Z,1.54
2023-02-02T23:03:12.528Z,1.53
2023-02-02T23:05:41.082Z,1.47
2023-02-02T23:08:09.752Z,1.46
2023-02-02T23:10:38.442Z,1.43
2023-02-02T23:13:07.370Z,1.43
2023-02-02T23:15:36.385Z,1.41
2023-02-02T23:18:05.467Z,1.44
2023-02-02T23:20:35.595Z,1.45
2023-02-02T23:23:04.425Z,1.45
2023-02-02T23:25:33.141Z,1.45
2023-02-02T23:28:01.624Z,1.41
2023-02-02T23:30:30.052Z,1.33
2023-02-02T23:32:58.426Z,1.38
2023-02-02T23:35:26.744Z,1.34
2023-02-02T23:37:56.681Z,1.33
2023-02-02T23:40:25.555Z,1.34
2023-02-02T23:42:54.681Z,1.33
2023-02-02T23:45:23.225Z,1.37
2023-02-02T23:47:51.811Z,1.30
2023-02-02T23:50:20.447Z,1.35
2023-02-02T23:52:48.801Z,1.34
2023-02-02T23:55:18.904Z,1.32
2023-02-02T23:57:47.323Z,1.22
